createdAt,value
2022-09-28T00:02:16.522Z,9.56
2022-09-28T00:04:46.070Z,9.51
2022-09-28T00:07:18.127Z,9.60
2022-09-28T00:09:47.675Z,9.63
2022-09-28T00:12:17.944Z,9.64
2022-09-28T00:14:47.490Z,9.65
2022-09-28T00:17:17.192Z,9.69
2022-09-28T00:19:46.713Z,9.75
2022-09-28T00:22:19.123Z,9.75
2022-09-28T00:24:48.664Z,9.69
2022-09-28T00:27:18.165Z,9.66
2022-09-28T00:29:47.698Z,9.62
2022-09-28T00:32:17.470Z,9.50
2022-09-28T00:34:49.337Z,9.52
2022-09-28T00:37:22.597Z,9.51
2022-09-28T00:39:52.285Z,9.50
2022-09-28T00:42:24.978Z,9.53
2022-09-28T00:44:56.071Z,9.53
2022-09-28T00:47:39.919Z,9.50
2022-09-28T00:50:14.616Z,9.50
2022-09-28T00:52:51.303Z,9.45
2022-09-28T00:55:23.752Z,9.32
2022-09-28T00:57:58.447Z,9.38
2022-09-28T01:00:28.072Z,9.39
2022-09-28T01:02:58.014Z,9.31
2022-09-28T01:05:27.724Z,9.34
2022-09-28T01:08:00.476Z,9.34
2022-09-28T01:10:31.724Z,9.30
2022-09-28T01:13:01.553Z,9.28
2022-09-28T01:15:32.584Z,9.15
2022-09-28T01:18:14.307Z,9.15
2022-09-28T01:21:08.282Z,9.16
2022-09-28T01:24:10.971Z,9.11
2022-09-28T01:27:03.463Z,8.99
2022-09-28T01:29:48.632Z,9.00
2022-09-28T01:32:27.071Z,8.98
2022-09-28T01:35:01.138Z,8.95
2022-09-28T01:53:14.302Z,8.61
2022-09-28T01:55:48.047Z,8.57
2022-09-28T01:58:23.643Z,8.53
2022-09-28T02:00:59.461Z,8.49
2022-09-28T02:03:35.405Z,8.43
2022-09-28T02:06:10.556Z,8.40
2022-09-28T02:08:50.428Z,8.39
2022-09-28T02:11:21.832Z,8.43
2022-09-28T02:13:56.847Z,8.46
2022-09-28T02:16:33.408Z,8.50
2022-09-28T02:19:03.439Z,8.44
2022-09-28T02:21:38.593Z,8.56
2022-09-28T02:24:21.232Z,8.58
2022-09-28T02:26:54.673Z,8.48
2022-09-28T02:29:24.149Z,8.51
2022-09-28T02:31:54.415Z,8.51
2022-09-28T02:34:23.926Z,8.56
2022-09-28T02:36:53.625Z,8.55
2022-09-28T02:39:25.840Z,8.55
2022-09-28T02:42:04.594Z,8.62
2022-09-28T02:44:52.052Z,8.70
2022-09-28T02:47:35.344Z,8.67
2022-09-28T02:50:16.107Z,8.60
2022-09-28T02:53:06.154Z,8.61
2022-09-28T02:55:53.736Z,8.66
2022-09-28T02:58:33.652Z,8.63
2022-09-28T03:01:09.932Z,8.51
2022-09-28T03:03:49.010Z,8.60
2022-09-28T03:06:25.924Z,8.56
2022-09-28T03:09:00.729Z,8.62
2022-09-28T03:11:37.760Z,8.67
2022-09-28T03:14:07.836Z,8.70
2022-09-28T03:16:37.284Z,8.73
2022-09-28T03:19:06.715Z,8.75
2022-09-28T03:21:36.132Z,8.70
2022-09-28T03:24:06.044Z,8.71
2022-09-28T03:26:38.100Z,8.75
2022-09-28T03:29:08.094Z,8.64
2022-09-28T03:31:38.466Z,8.72
2022-09-28T03:34:08.184Z,8.72
2022-09-28T03:36:37.630Z,8.71
2022-09-28T03:39:07.144Z,8.67
2022-09-28T03:41:39.199Z,8.66
2022-09-28T03:44:08.669Z,8.67
2022-09-28T03:46:38.067Z,8.63
2022-09-28T03:49:07.749Z,8.58
2022-09-28T03:51:37.173Z,8.65
2022-09-28T03:54:07.216Z,8.62
2022-09-28T03:56:39.221Z,8.58
2022-09-28T03:59:08.638Z,8.55
2022-09-28T04:01:38.227Z,8.53
2022-09-28T04:04:07.733Z,8.50
2022-09-28T04:06:37.197Z,8.51
2022-09-28T04:09:06.950Z,8.48
2022-09-28T04:12:02.355Z,8.47
2022-09-28T04:14:28.905Z,8.51
2022-09-28T04:16:58.351Z,8.50
2022-09-28T04:19:28.199Z,8.51
2022-09-28T04:21:57.677Z,8.51
2022-09-28T04:24:27.127Z,8.59
2022-09-28T04:27:19.194Z,8.60
2022-09-28T04:29:46.010Z,8.61
2022-09-28T04:32:15.516Z,8.63
2022-09-28T04:34:44.975Z,8.62
2022-09-28T04:37:15.034Z,8.66
2022-09-28T04:39:48.255Z,8.70
2022-09-28T04:42:20.638Z,8.72
2022-09-28T04:44:50.056Z,8.77
2022-09-28T04:47:19.629Z,8.75
2022-09-28T04:49:49.109Z,8.74
2022-09-28T04:52:18.859Z,8.75
2022-09-28T04:54:48.290Z,8.61
2022-09-28T04:57:20.590Z,8.62
2022-09-28T04:59:50.009Z,8.53
2022-09-28T05:02:19.553Z,8.53
2022-09-28T05:04:49.134Z,8.49
2022-09-28T05:07:18.651Z,8.47
2022-09-28T05:09:48.048Z,8.43
2022-09-28T05:12:21.564Z,8.40
2022-09-28T05:14:50.989Z,8.24
2022-09-28T05:17:20.450Z,8.24
2022-09-28T05:19:49.882Z,8.26
2022-09-28T05:22:19.302Z,8.17
2022-09-28T05:24:49.109Z,8.14
2022-09-28T05:27:21.164Z,8.18
2022-09-28T05:29:50.751Z,8.16
2022-09-28T05:32:20.136Z,8.21
2022-09-28T05:34:49.560Z,8.24
2022-09-28T05:37:19.008Z,8.21
2022-09-28T05:39:48.356Z,8.21
2022-09-28T05:42:17.732Z,8.15
2022-09-28T05:44:49.741Z,8.14
2022-09-28T05:47:19.134Z,8.12
2022-09-28T05:49:48.508Z,8.11
2022-09-28T05:52:17.929Z,8.15
2022-09-28T05:54:47.338Z,8.13
2022-09-28T05:57:17.593Z,8.11
2022-09-28T05:59:49.576Z,8.13
2022-09-28T06:02:19.033Z,8.15
2022-09-28T06:04:49.594Z,8.11
2022-09-28T06:07:19.187Z,8.11
2022-09-28T06:09:48.658Z,8.11
2022-09-28T06:12:19.947Z,8.09
2022-09-28T06:14:51.984Z,8.13
2022-09-28T06:17:21.388Z,8.08
2022-09-28T06:19:52.327Z,8.02
2022-09-28T06:22:21.724Z,8.11
2022-09-28T06:24:51.087Z,8.09
2022-09-28T06:27:20.493Z,8.08
2022-09-28T06:29:52.904Z,8.11
2022-09-28T06:32:22.416Z,8.16
2022-09-28T06:34:56.187Z,8.09
2022-09-28T06:37:27.264Z,8.09
2022-09-28T06:39:57.109Z,8.20
2022-09-28T06:42:26.638Z,8.19
2022-09-28T06:44:59.295Z,8.18
2022-09-28T06:47:28.644Z,8.19
2022-09-28T06:49:58.114Z,8.19
2022-09-28T06:52:27.505Z,8.24
2022-09-28T06:54:56.919Z,8.29
2022-09-28T06:57:26.317Z,8.35
2022-09-28T06:59:58.281Z,8.49
2022-09-28T07:02:27.703Z,8.48
2022-09-28T07:04:57.157Z,8.47
2022-09-28T07:07:27.108Z,8.52
2022-09-28T07:09:57.557Z,8.63
2022-09-28T07:12:26.936Z,8.69
2022-09-28T07:14:58.915Z,8.73
2022-09-28T07:17:28.675Z,8.80
2022-09-28T07:20:02.625Z,8.83
2022-09-28T07:22:42.890Z,8.96
2022-09-28T07:25:14.330Z,9.05
2022-09-28T07:27:44.024Z,9.05
2022-09-28T07:30:16.493Z,9.12
2022-09-28T07:32:48.514Z,9.28
2022-09-28T07:35:18.147Z,9.15
2022-09-28T07:37:47.519Z,9.25
2022-09-28T07:40:29.726Z,9.18
2022-09-28T07:42:59.460Z,9.32
2022-09-28T07:45:34.104Z,9.39
2022-09-28T07:48:04.318Z,9.36
2022-09-28T07:50:34.328Z,9.32
2022-09-28T07:53:04.005Z,9.29
2022-09-28T07:55:33.396Z,9.21
2022-09-28T07:58:03.949Z,9.31
2022-09-28T08:00:35.960Z,9.34
2022-09-28T08:03:06.219Z,9.38
2022-09-28T08:05:35.912Z,9.30
2022-09-28T08:08:05.565Z,9.39
2022-09-28T08:10:35.080Z,9.34
2022-09-28T08:13:06.459Z,9.30
2022-09-28T08:15:40.668Z,9.36
2022-09-28T08:18:10.109Z,9.40
2022-09-28T08:20:52.197Z,9.58
2022-09-28T08:23:23.602Z,9.68
2022-09-28T08:25:54.795Z,9.77
2022-09-28T08:28:25.681Z,9.74
2022-09-28T08:30:58.446Z,9.73
2022-09-28T08:33:28.160Z,9.85
2022-09-28T08:36:01.614Z,9.82
2022-09-28T08:38:32.995Z,9.76
2022-09-28T08:41:12.612Z,9.75
2022-09-28T08:43:56.736Z,9.81
2022-09-28T08:46:33.435Z,9.78
2022-09-28T08:49:26.321Z,9.79
2022-09-28T08:52:02.165Z,9.77
2022-09-28T08:54:42.152Z,9.77
2022-09-28T08:57:18.182Z,9.73
2022-09-28T08:59:53.833Z,9.81
2022-09-28T09:02:31.395Z,9.76
2022-09-28T09:05:02.644Z,9.81
2022-09-28T09:08:04.161Z,9.82
2022-09-28T09:10:47.012Z,9.89
2022-09-28T09:13:41.733Z,9.76
2022-09-28T09:16:20.159Z,9.83
2022-09-28T09:18:58.766Z,9.64
2022-09-28T09:21:43.277Z,9.65
2022-09-28T09:24:28.505Z,9.52
2022-09-28T09:27:15.254Z,9.62
2022-09-28T09:30:03.677Z,9.71
2022-09-28T09:32:48.192Z,9.75
2022-09-28T09:35:51.983Z,9.79
2022-09-28T09:38:38.633Z,9.95
2022-09-28T09:41:23.044Z,10.02
2022-09-28T09:44:10.337Z,10.01
2022-09-28T09:46:45.252Z,10.08
2022-09-28T09:49:21.129Z,9.85
2022-09-28T09:52:01.758Z,9.75
2022-09-28T09:54:40.138Z,9.81
2022-09-28T09:57:15.836Z,9.79
2022-09-28T09:59:47.065Z,9.68
2022-09-28T10:02:25.749Z,9.71
2022-09-28T10:04:58.539Z,9.52
2022-09-28T10:07:38.510Z,9.41
2022-09-28T10:10:15.356Z,9.26
2022-09-28T10:12:44.912Z,9.15
2022-09-28T10:15:19.178Z,9.14
2022-09-28T10:17:48.701Z,9.00
2022-09-28T10:20:19.174Z,8.91
2022-09-28T10:22:52.783Z,8.96
2022-09-28T10:25:23.152Z,8.96
2022-09-28T10:27:55.385Z,9.02
2022-09-28T10:30:27.031Z,9.03
2022-09-28T10:32:59.565Z,9.02
2022-09-28T10:35:32.386Z,8.96
2022-09-28T10:38:09.350Z,9.01
2022-09-28T10:40:47.466Z,9.03
2022-09-28T10:43:25.899Z,8.99
2022-09-28T10:46:07.850Z,9.12
2022-09-28T10:48:50.308Z,9.02
2022-09-28T10:51:21.075Z,9.10
2022-09-28T10:54:05.432Z,9.12
2022-09-28T10:56:40.245Z,9.23
2022-09-28T10:59:26.747Z,9.42
2022-09-28T11:01:59.430Z,9.55
2022-09-28T11:04:32.290Z,9.60
2022-09-28T11:07:04.668Z,9.62
2022-09-28T11:09:47.424Z,9.61
2022-09-28T11:12:21.335Z,9.58
2022-09-28T11:14:58.801Z,9.53
2022-09-28T11:17:32.542Z,9.54
2022-09-28T11:20:04.569Z,9.54
2022-09-28T11:22:44.825Z,9.54
2022-09-28T11:25:26.853Z,9.60
2022-09-28T11:28:02.013Z,9.69
2022-09-28T11:30:36.312Z,9.60
2022-09-28T11:33:09.952Z,9.61
2022-09-28T11:35:48.805Z,9.75
2022-09-28T11:38:33.680Z,9.72
2022-09-28T11:41:26.224Z,9.84
2022-09-28T11:44:17.229Z,9.93
2022-09-28T11:46:56.751Z,10.17
2022-09-28T11:49:34.368Z,10.34
2022-09-28T11:52:07.966Z,10.37
2022-09-28T11:54:43.893Z,10.54
2022-09-28T11:57:21.654Z,10.77
2022-09-28T12:00:00.521Z,11.05
2022-09-28T12:02:34.718Z,11.25
2022-09-28T12:05:18.389Z,11.12
2022-09-28T12:07:53.945Z,11.38
2022-09-28T12:10:34.515Z,12.15
2022-09-28T12:13:12.085Z,12.51
2022-09-28T12:16:13.265Z,12.66
2022-09-28T12:18:47.420Z,13.19
2022-09-28T12:21:36.285Z,13.17
2022-09-28T12:24:15.160Z,13.11
2022-09-28T12:26:50.105Z,13.72
2022-09-28T12:29:27.326Z,13.57
2022-09-28T12:32:10.654Z,13.56
2022-09-28T12:34:40.125Z,13.50
2022-09-28T12:37:37.421Z,13.27
2022-09-28T12:40:27.996Z,13.28
2022-09-28T12:43:14.134Z,12.27
2022-09-28T12:46:18.224Z,11.76
2022-09-28T12:49:51.592Z,11.06
2022-09-28T12:51:57.749Z,10.77
2022-09-28T12:54:50.632Z,10.52
2022-09-28T12:57:38.841Z,10.31
2022-09-28T13:00:13.235Z,10.04
2022-09-28T13:03:13.794Z,10.05
2022-09-28T13:06:19.696Z,9.83
2022-09-28T13:09:23.500Z,9.83
2022-09-28T13:12:13.639Z,9.90
2022-09-28T13:15:13.001Z,10.03
2022-09-28T13:17:51.764Z,10.23
2022-09-28T13:20:40.604Z,10.35
2022-09-28T13:23:17.855Z,10.62
2022-09-28T13:25:53.965Z,10.70
2022-09-28T13:28:27.248Z,10.64
2022-09-28T13:30:59.933Z,10.86
2022-09-28T13:33:36.996Z,11.26
2022-09-28T13:36:47.878Z,11.61
2022-09-28T13:39:40.315Z,11.97
2022-09-28T13:42:11.876Z,12.35
2022-09-28T13:44:59.579Z,12.49
2022-09-28T13:47:49.235Z,12.72
2022-09-28T13:50:30.212Z,12.61
2022-09-28T13:53:14.649Z,12.41
2022-09-28T13:55:56.524Z,12.55
2022-09-28T13:58:30.687Z,12.41
2022-09-28T14:01:04.968Z,12.47
2022-09-28T14:03:47.385Z,12.26
2022-09-28T14:06:29.162Z,12.53
2022-09-28T14:09:41.660Z,11.52
2022-09-28T14:12:45.831Z,11.83
2022-09-28T14:15:44.546Z,11.90
2022-09-28T14:18:33.926Z,12.41
2022-09-28T14:21:23.685Z,12.54
2022-09-28T14:24:23.843Z,12.63
2022-09-28T14:27:14.997Z,12.55
2022-09-28T14:29:44.371Z,12.50
2022-09-28T14:32:28.212Z,12.23
2022-09-28T14:35:04.664Z,12.09
2022-09-28T14:37:48.888Z,12.09
2022-09-28T14:40:36.716Z,11.97
2022-09-28T14:43:28.990Z,12.18
2022-09-28T14:46:28.603Z,12.21
2022-09-28T14:49:01.790Z,12.20
2022-09-28T14:51:47.970Z,12.46
2022-09-28T14:54:22.072Z,12.49
2022-09-28T14:57:09.366Z,12.46
2022-09-28T14:59:46.284Z,12.59
2022-09-28T15:02:22.341Z,12.53
2022-09-28T15:04:55.191Z,12.33
2022-09-28T15:07:32.891Z,12.65
2022-09-28T15:10:07.224Z,12.61
2022-09-28T15:12:39.215Z,12.40
2022-09-28T15:15:22.952Z,12.68
2022-09-28T15:18:04.545Z,12.78
2022-09-28T15:20:38.073Z,12.75
2022-09-28T15:23:07.543Z,12.53
2022-09-28T15:25:36.913Z,12.86
2022-09-28T15:28:22.261Z,13.17
2022-09-28T15:30:51.756Z,12.55
2022-09-28T15:33:41.248Z,12.22
2022-09-28T15:36:15.696Z,12.09
2022-09-28T15:38:45.796Z,11.82
2022-09-28T15:41:15.296Z,11.53
2022-09-28T15:44:07.279Z,11.40
2022-09-28T15:46:37.735Z,11.57
2022-09-28T15:49:08.643Z,11.54
2022-09-28T15:51:52.221Z,11.64
2022-09-28T15:54:26.927Z,11.60
2022-09-28T15:56:59.950Z,11.36
2022-09-28T15:59:35.757Z,11.25
2022-09-28T16:02:14.273Z,11.18
2022-09-28T16:04:51.679Z,11.05
2022-09-28T16:07:28.172Z,10.94
2022-09-28T16:10:06.640Z,10.69
2022-09-28T16:12:49.449Z,10.79
2022-09-28T16:15:25.748Z,10.79
2022-09-28T16:18:00.849Z,10.97
2022-09-28T16:20:36.700Z,10.84
2022-09-28T16:23:18.780Z,10.68
2022-09-28T16:25:54.546Z,10.70
2022-09-28T16:28:34.269Z,10.54
2022-09-28T16:31:10.501Z,10.61
2022-09-28T16:33:44.018Z,10.49
2022-09-28T16:36:15.992Z,10.43
2022-09-28T16:38:47.153Z,10.43
2022-09-28T16:41:19.711Z,10.45
2022-09-28T16:43:50.259Z,10.39
2022-09-28T16:46:24.942Z,10.43
2022-09-28T16:48:55.757Z,10.31
2022-09-28T16:51:26.649Z,10.38
2022-09-28T16:54:09.053Z,10.28
2022-09-28T16:56:39.749Z,10.33
2022-09-28T16:59:13.633Z,10.40
2022-09-28T17:01:46.416Z,10.31
2022-09-28T17:04:16.164Z,10.42
2022-09-28T17:06:46.154Z,10.31
2022-09-28T17:09:16.144Z,10.35
2022-09-28T17:11:48.611Z,10.34
2022-09-28T17:14:18.798Z,10.34
2022-09-28T17:17:13.802Z,10.38
2022-09-28T17:19:44.039Z,10.39
2022-09-28T17:22:14.228Z,10.39
2022-09-28T17:24:45.675Z,10.31
2022-09-28T17:27:19.450Z,10.28
2022-09-28T17:29:49.242Z,10.26
2022-09-28T17:32:22.463Z,10.26
2022-09-28T17:35:06.460Z,10.20
2022-09-28T17:37:37.736Z,10.21
2022-09-28T17:40:17.608Z,10.23
2022-09-28T17:42:48.104Z,10.23
2022-09-28T17:45:18.521Z,10.23
2022-09-28T17:47:51.092Z,10.21
2022-09-28T17:50:25.865Z,10.10
2022-09-28T17:52:57.897Z,10.19
2022-09-28T17:55:31.688Z,10.23
2022-09-28T17:58:02.026Z,10.17
2022-09-28T18:00:31.906Z,10.15
2022-09-28T18:03:04.431Z,10.21
2022-09-28T18:05:34.169Z,10.19
2022-09-28T18:08:04.650Z,10.03
2022-09-28T18:10:35.321Z,10.06
2022-09-28T18:13:05.175Z,10.12
2022-09-28T18:15:35.318Z,10.07
2022-09-28T18:18:10.087Z,10.14
2022-09-28T18:20:41.449Z,9.93
2022-09-28T18:23:11.307Z,9.95
2022-09-28T18:25:43.389Z,9.98
2022-09-28T18:28:13.412Z,9.99
2022-09-28T18:30:44.782Z,9.88
2022-09-28T18:33:17.881Z,9.88
2022-09-28T18:35:55.355Z,9.91
2022-09-28T18:38:25.024Z,9.95
2022-09-28T18:40:56.008Z,9.98
2022-09-28T18:43:25.802Z,9.91
2022-09-28T18:45:56.337Z,10.02
2022-09-28T18:48:29.588Z,9.96
2022-09-28T18:50:59.454Z,9.93
2022-09-28T18:53:29.320Z,9.91
2022-09-28T18:55:59.371Z,9.87
2022-09-28T18:58:29.247Z,9.91
2022-09-28T19:01:25.193Z,9.91
2022-09-28T19:03:51.433Z,9.95
2022-09-28T19:06:21.674Z,9.97
2022-09-28T19:08:56.871Z,9.94
2022-09-28T19:11:28.988Z,9.85
2022-09-28T19:13:59.529Z,9.93
2022-09-28T19:16:36.402Z,10.05
2022-09-28T19:19:09.057Z,9.99
2022-09-28T19:21:39.116Z,10.02
2022-09-28T19:24:09.381Z,10.02
2022-09-28T19:26:41.064Z,10.06
2022-09-28T19:29:11.998Z,10.07
2022-09-28T19:31:41.743Z,10.15
2022-09-28T19:34:14.593Z,10.11
2022-09-28T19:36:45.286Z,10.13
2022-09-28T19:39:17.885Z,10.16
2022-09-28T19:41:51.250Z,10.05
2022-09-28T19:44:24.881Z,10.07
2022-09-28T19:46:56.518Z,9.96
2022-09-28T19:49:37.217Z,10.01
2022-09-28T19:52:17.266Z,9.92
2022-09-28T19:54:57.040Z,9.91
2022-09-28T19:57:27.993Z,9.94
2022-09-28T20:00:02.486Z,9.91
2022-09-28T20:02:32.852Z,9.87
2022-09-28T20:05:05.172Z,9.93
2022-09-28T20:07:36.226Z,9.97
2022-09-28T20:10:06.235Z,9.94
2022-09-28T20:12:35.885Z,9.88
2022-09-28T20:15:06.822Z,10.00
2022-09-28T20:17:39.199Z,9.90
2022-09-28T20:20:11.827Z,9.92
2022-09-28T20:22:41.757Z,9.94
2022-09-28T20:25:11.432Z,9.85
2022-09-28T20:27:41.165Z,9.93
2022-09-28T20:30:12.722Z,9.92
2022-09-28T20:32:46.083Z,9.84
2022-09-28T20:35:32.170Z,9.89
2022-09-28T20:38:08.067Z,9.91
2022-09-28T20:40:40.283Z,9.90
2022-09-28T20:43:10.022Z,9.90
2022-09-28T20:45:39.957Z,9.92
2022-09-28T20:48:09.658Z,9.88
2022-09-28T20:50:42.667Z,9.95
2022-09-28T20:53:12.148Z,9.94
2022-09-28T20:55:41.703Z,9.97
2022-09-28T20:58:11.403Z,10.01
2022-09-28T21:00:41.029Z,10.02
2022-09-28T21:03:11.560Z,9.92
2022-09-28T21:05:43.655Z,9.86
2022-09-28T21:08:13.403Z,9.89
2022-09-28T21:10:49.333Z,10.06
2022-09-28T21:13:18.985Z,10.04
2022-09-28T21:15:48.691Z,9.95
2022-09-28T21:18:18.532Z,10.00
2022-09-28T21:20:52.448Z,10.00
2022-09-28T21:23:25.051Z,9.94
2022-09-28T21:26:04.147Z,9.90
2022-09-28T21:28:34.466Z,10.03
2022-09-28T21:31:05.022Z,9.92
2022-09-28T21:33:34.714Z,9.94
2022-09-28T21:36:08.630Z,9.95
2022-09-28T21:38:38.323Z,9.98
2022-09-28T21:41:08.342Z,9.96
2022-09-28T21:43:38.206Z,9.89
2022-09-28T21:46:08.383Z,9.81
2022-09-28T21:48:38.188Z,9.92
2022-09-28T21:51:13.261Z,9.75
2022-09-28T21:53:43.171Z,9.76
2022-09-28T21:56:14.830Z,9.71
2022-09-28T21:58:44.445Z,9.78
2022-09-28T22:01:16.600Z,9.73
2022-09-28T22:03:48.236Z,9.72
2022-09-28T22:06:22.374Z,9.76
2022-09-28T22:08:52.999Z,9.75
2022-09-28T22:11:24.420Z,9.70
2022-09-28T22:13:55.746Z,9.67
2022-09-28T22:16:28.189Z,9.68
2022-09-28T22:18:58.126Z,9.64
2022-09-28T22:21:32.131Z,9.64
2022-09-28T22:24:03.673Z,9.61
2022-09-28T22:26:35.101Z,9.69
2022-09-28T22:29:08.336Z,9.66
2022-09-28T22:31:40.293Z,9.69
2022-09-28T22:34:10.598Z,9.59
2022-09-28T22:36:44.078Z,9.58
2022-09-28T22:39:14.846Z,9.54
2022-09-28T22:41:44.599Z,9.54
2022-09-28T22:44:14.354Z,9.53
2022-09-28T22:46:44.239Z,9.44
2022-09-28T22:49:15.530Z,9.54
2022-09-28T22:51:48.171Z,9.59
2022-09-28T22:54:18.373Z,9.61
2022-09-28T22:56:48.210Z,9.53
2022-09-28T22:59:17.989Z,9.46
2022-09-28T23:01:47.730Z,9.43
2022-09-28T23:04:17.457Z,9.31
2022-09-28T23:06:49.771Z,9.34
2022-09-28T23:09:19.544Z,9.33
2022-09-28T23:11:49.343Z,9.30
2022-09-28T23:14:19.275Z,9.28
2022-09-28T23:16:51.356Z,9.28
2022-09-28T23:19:21.079Z,9.19
2022-09-28T23:21:54.174Z,9.23
2022-09-28T23:24:23.887Z,9.20
2022-09-28T23:26:53.644Z,9.27
2022-09-28T23:29:23.370Z,9.16
2022-09-28T23:31:53.296Z,9.17
2022-09-28T23:34:23.076Z,9.25
2022-09-28T23:36:59.500Z,9.23
2022-09-28T23:39:29.247Z,9.18
2022-09-28T23:41:59.211Z,9.15
2022-09-28T23:44:29.119Z,9.16
2022-09-28T23:46:58.802Z,9.16
2022-09-28T23:49:29.847Z,9.10
2022-09-28T23:52:02.593Z,9.10
2022-09-28T23:54:32.384Z,9.06
2022-09-28T23:57:02.037Z,9.08
2022-09-28T23:59:31.839Z,9.02
